Time;durP1;ratioP1;P1;durP2;ratioP2;P2;SDS_P1;SDS_P2;PMS_P1;PMS_P2;Temp;Humidity;BMP_temperature;BMP_pressure;BME280_temperature;BME280_humidity;BME280_pressure;Samples;Min_cycle;Max_cycle;Signal;HPM_P1;HPM_P2
2021/05/05 00:02:05;;;;;;;4.43;3.20;;;;;;;11.60;58.12;99005.09;127595;1107;22362;-78
2021/05/05 00:04:37;;;;;;;6.10;3.30;;;;;;;11.59;58.24;99004.25;127580;1107;22849;-78
2021/05/05 00:07:08;;;;;;;4.50;3.18;;;;;;;11.60;58.29;98999.80;127060;1108;23940;-80
2021/05/05 00:09:37;;;;;;;5.15;3.28;;;;;;;11.58;58.05;99002.64;126998;1107;22383;-80
2021/05/05 00:12:07;;;;;;;5.15;3.08;;;;;;;11.55;58.15;98998.56;127105;1105;22375;-78
2021/05/05 00:14:36;;;;;;;3.78;2.70;;;;;;;11.54;58.08;98996.14;127017;1111;22471;-80
2021/05/05 00:17:05;;;;;;;4.90;2.80;;;;;;;11.51;58.27;99002.65;127446;1108;22372;-78
2021/05/05 00:19:35;;;;;;;4.78;2.95;;;;;;;11.53;58.32;98997.17;127096;1104;22481;-78
2021/05/05 00:22:06;;;;;;;5.38;2.95;;;;;;;11.56;58.41;98988.80;127288;1108;22382;-78
2021/05/05 00:24:35;;;;;;;4.75;2.80;;;;;;;11.58;58.58;98989.41;127595;1104;22386;-78
2021/05/05 00:27:05;;;;;;;6.65;2.95;;;;;;;11.61;58.47;98996.94;127657;1103;24497;-76
2021/05/05 00:29:34;;;;;;;5.00;3.63;;;;;;;11.62;57.97;98987.97;127609;1106;22357;-79
2021/05/05 00:32:05;;;;;;;4.83;2.40;;;;;;;11.61;58.08;98991.64;127137;1105;22409;-79
2021/05/05 00:34:37;;;;;;;4.37;2.97;;;;;;;11.60;58.12;98990.03;127674;1106;22383;-79
2021/05/05 00:37:06;;;;;;;4.83;3.43;;;;;;;11.59;57.84;98998.16;127077;1108;22464;-77
2021/05/05 00:39:36;;;;;;;5.60;3.98;;;;;;;11.57;58.30;98993.09;127118;1105;24814;-78
2021/05/05 00:42:05;;;;;;;3.13;2.83;;;;;;;11.55;57.91;98998.56;128003;1105;22521;-78
2021/05/05 00:44:37;;;;;;;4.78;3.05;;;;;;;11.49;58.05;98994.09;127639;1106;23507;-80
2021/05/05 00:47:08;;;;;;;4.05;3.33;;;;;;;11.46;58.00;98989.25;127131;1104;22381;-78
2021/05/05 00:49:37;;;;;;;3.15;2.70;;;;;;;11.43;58.19;98988.82;127005;1111;22478;-79
2021/05/05 00:52:13;;;;;;;7.10;3.70;;;;;;;11.38;58.66;98981.52;126694;1111;22382;-79
2021/05/05 00:54:42;;;;;;;5.58;3.15;;;;;;;11.37;58.61;98973.81;126695;1111;22373;-80
2021/05/05 00:57:13;;;;;;;7.35;2.98;;;;;;;11.33;58.79;98983.15;126966;1111;22556;-80
2021/05/05 00:59:42;;;;;;;4.70;3.45;;;;;;;11.27;58.69;98980.33;126675;1109;24605;-79
2021/05/05 01:02:15;;;;;;;3.45;2.60;;;;;;;11.24;58.96;98980.73;126953;1108;24285;-79
2021/05/05 01:04:44;;;;;;;5.53;3.30;;;;;;;11.19;58.86;98972.59;127148;1108;22507;-78
2021/05/05 01:07:14;;;;;;;4.50;3.05;;;;;;;11.12;58.79;98973.63;127157;1103;22564;-78
2021/05/05 01:09:46;;;;;;;5.28;3.20;;;;;;;11.05;59.10;98977.08;127685;1104;22366;-79
2021/05/05 01:12:15;;;;;;;;;;;;;;;10.95;59.01;98973.23;128191;1104;22453;-79
2021/05/05 01:14:44;;;;;;;5.48;3.30;;;;;;;10.86;59.48;98975.25;128031;1098;23811;-79
2021/05/05 01:17:13;;;;;;;3.98;3.58;;;;;;;10.86;59.64;98977.08;128052;1101;22347;-78
2021/05/05 01:19:44;;;;;;;4.83;3.55;;;;;;;10.85;59.71;98978.91;128293;1101;22647;-80
2021/05/05 01:22:13;;;;;;;5.40;3.18;;;;;;;10.86;59.95;98972.61;128035;1098;24579;-79
2021/05/05 01:24:42;;;;;;;3.95;3.08;;;;;;;10.88;59.99;98980.34;128201;1101;22354;-80
2021/05/05 01:27:12;;;;;;;6.23;4.15;;;;;;;10.89;60.15;98984.61;128286;1101;22843;-79
2021/05/05 01:29:42;;;;;;;4.83;3.27;;;;;;;10.92;60.26;98979.73;128304;1102;22368;-78
2021/05/05 01:32:11;;;;;;;9.93;3.60;;;;;;;10.93;60.15;98984.02;127988;1103;22351;-78
2021/05/05 01:34:40;;;;;;;4.40;3.45;;;;;;;10.92;59.97;98978.92;127604;1103;24481;-79
2021/05/05 01:37:13;;;;;;;5.88;3.80;;;;;;;10.86;59.97;98983.17;127988;1105;22358;-78
2021/05/05 01:39:43;;;;;;;5.65;3.55;;;;;;;10.80;60.04;98979.53;127668;1102;24489;-78
2021/05/05 01:42:14;;;;;;;4.28;3.40;;;;;;;10.77;59.71;98974.66;128233;1101;24186;-79
2021/05/05 01:44:43;;;;;;;4.20;3.08;;;;;;;10.75;60.14;98971.39;127605;1105;22374;-78
2021/05/05 01:47:16;;;;;;;5.05;3.88;;;;;;;10.70;59.98;98973.03;127541;1104;26029;-79
2021/05/05 01:49:48;;;;;;;5.58;3.28;;;;;;;10.63;60.23;98966.91;127872;1107;22456;-80
2021/05/05 01:52:20;;;;;;;8.10;3.68;;;;;;;10.60;60.63;98968.15;127894;1104;22359;-79
2021/05/05 01:54:50;;;;;;;5.55;3.48;;;;;;;10.57;60.60;98963.27;128017;1101;24245;-79
2021/05/05 01:57:42;;;;;;;5.50;4.20;;;;;;;10.54;60.76;98956.55;127985;1104;22677;-78
2021/05/05 02:00:29;;;;;;;7.25;3.75;;;;;;;10.42;60.87;98967.91;127949;1101;22350;-81
2021/05/05 02:03:05;;;;;;;6.05;4.00;;;;;;;10.31;60.95;98974.59;128030;1100;24512;-76
2021/05/05 02:05:38;;;;;;;6.65;4.18;;;;;;;10.23;61.42;98975.56;127749;1104;22857;-77
2021/05/05 02:08:13;;;;;;;7.97;4.67;;;;;;;10.18;61.74;98970.05;127587;1107;22434;-77
2021/05/05 02:10:45;;;;;;;6.53;4.13;;;;;;;10.18;62.01;98969.24;127554;1107;22699;-77
2021/05/05 02:13:16;;;;;;;9.33;5.30;;;;;;;10.18;62.19;98970.05;127166;1108;22378;-78
2021/05/05 02:15:45;;;;;;;6.80;4.85;;;;;;;10.18;61.87;98956.86;126992;1111;22507;-78
2021/05/05 02:18:15;;;;;;;6.40;4.08;;;;;;;10.16;62.41;98953.59;126930;1108;22528;-77
2021/05/05 02:20:45;;;;;;;7.28;4.53;;;;;;;10.15;62.38;98959.89;126710;1111;22407;-76
2021/05/05 02:23:14;;;;;;;8.20;5.45;;;;;;;10.11;62.46;98954.20;126696;1111;22407;-78
2021/05/05 02:25:44;;;;;;;6.90;5.18;;;;;;;10.07;62.43;98952.17;127095;1108;24054;-77
2021/05/05 02:28:12;;;;;;;9.65;5.33;;;;;;;10.03;62.74;98949.12;127120;1108;22394;-78
2021/05/05 02:31:02;;;;;;;8.08;7.25;;;;;;;9.98;62.78;98950.71;127238;1107;22407;-78
2021/05/05 02:33:33;;;;;;;6.88;6.08;;;;;;;9.96;63.07;98952.72;127746;1101;22350;-78
2021/05/05 02:36:02;;;;;;;7.05;5.90;;;;;;;9.94;63.21;98946.84;127981;1101;25096;-79
2021/05/05 02:38:34;;;;;;;8.60;6.33;;;;;;;9.90;63.27;98947.24;127994;1104;22362;-80
2021/05/05 02:41:04;;;;;;;6.65;5.50;;;;;;;9.89;63.66;98952.70;128041;1105;22371;-78
2021/05/05 02:43:34;;;;;;;8.58;4.98;;;;;;;9.86;63.71;98939.91;127967;1101;22633;-79
2021/05/05 02:46:04;;;;;;;6.73;5.55;;;;;;;9.82;63.48;98938.67;127634;1100;24958;-79
2021/05/05 02:48:33;;;;;;;6.35;5.08;;;;;;;9.76;64.09;98927.08;128096;1101;22534;-77
2021/05/05 02:51:02;;;;;;;5.95;5.05;;;;;;;9.71;64.09;98932.15;127956;1104;22380;-78
2021/05/05 02:53:35;;;;;;;7.20;5.30;;;;;;;9.65;64.36;98931.11;127951;1100;24237;-79
2021/05/05 02:56:05;;;;;;;6.05;5.30;;;;;;;9.66;64.52;98938.02;127974;1101;22354;-77
2021/05/05 02:58:36;;;;;;;5.70;5.10;;;;;;;9.68;64.49;98937.81;127988;1105;22370;-78
2021/05/05 03:01:05;;;;;;;7.30;6.08;;;;;;;9.72;64.49;98930.33;127656;1105;22393;-79
2021/05/05 03:03:35;;;;;;;5.85;4.90;;;;;;;9.79;64.50;98928.52;127884;1105;22375;-78
2021/05/05 03:06:04;;;;;;;7.35;4.60;;;;;;;9.85;64.60;98944.37;127755;1103;24205;-79
2021/05/05 03:08:35;;;;;;;6.65;5.15;;;;;;;9.88;64.65;98938.70;127068;1105;23306;-77
2021/05/05 03:11:07;;;;;;;8.08;5.18;;;;;;;9.95;64.47;98938.72;127000;1111;22940;-76
2021/05/05 03:13:36;;;;;;;7.08;5.35;;;;;;;9.99;64.20;98937.31;126938;1111;22430;-77
2021/05/05 03:16:06;;;;;;;5.68;4.73;;;;;;;10.05;64.26;98939.16;127031;1110;22422;-77
2021/05/05 03:18:39;;;;;;;7.05;4.20;;;;;;;10.11;63.96;98948.92;127003;1111;22727;-77
2021/05/05 03:21:09;;;;;;;5.10;4.43;;;;;;;10.14;63.74;98939.80;126965;1107;22574;-77
2021/05/05 03:23:39;;;;;;;4.88;3.85;;;;;;;10.14;63.12;98945.89;127048;1108;22375;-77
2021/05/05 03:26:07;;;;;;;5.13;4.23;;;;;;;10.16;63.58;98945.67;127142;1107;22434;-77
2021/05/05 03:28:38;;;;;;;5.88;3.55;;;;;;;10.20;63.23;98940.84;127649;1101;22355;-78
2021/05/05 03:31:07;;;;;;;5.03;4.20;;;;;;;10.24;63.38;98945.51;127998;1101;23215;-78
2021/05/05 03:33:36;;;;;;;6.63;3.95;;;;;;;10.29;63.03;98955.48;128089;1101;24144;-78
2021/05/05 03:36:06;;;;;;;6.88;4.43;;;;;;;10.34;63.00;98960.99;127606;1105;22425;-75
2021/05/05 03:38:40;;;;;;;6.38;4.10;;;;;;;10.36;62.50;98962.42;127680;1106;22371;-76
2021/05/05 03:41:11;;;;;;;7.48;4.75;;;;;;;10.39;62.48;98950.63;127632;1103;24247;-77
2021/05/05 03:43:40;;;;;;;5.40;4.28;;;;;;;10.41;62.19;98947.81;127594;1105;22391;-77
2021/05/05 03:46:09;;;;;;;6.03;4.03;;;;;;;10.42;62.01;98952.06;127642;1104;22351;-78
2021/05/05 03:48:38;;;;;;;5.68;3.85;;;;;;;10.42;61.63;98947.59;127785;1101;24508;-77
2021/05/05 03:51:08;;;;;;;6.53;4.35;;;;;;;10.43;61.61;98946.59;127649;1105;22370;-77
2021/05/05 03:53:37;;;;;;;9.05;3.83;;;;;;;10.47;61.65;98952.28;128100;1101;24265;-77
2021/05/05 03:56:06;;;;;;;8.15;3.58;;;;;;;10.52;61.50;98955.93;128013;1101;24533;-77
2021/05/05 03:58:35;;;;;;;8.08;5.25;;;;;;;10.56;61.36;98956.34;128021;1101;25083;-79
2021/05/05 04:01:04;;;;;;;7.85;5.90;;;;;;;10.58;61.09;98955.13;128008;1100;22408;-77
2021/05/05 04:03:36;;;;;;;7.67;5.80;;;;;;;10.64;60.84;98960.63;128008;1104;22361;-79
2021/05/05 04:06:08;;;;;;;;;;;;;;;10.65;60.71;98954.33;128047;1101;24450;-78
2021/05/05 04:08:43;;;;;;;9.65;6.68;;;;;;;10.60;60.65;98957.59;127767;1105;21274;-79
2021/05/05 04:11:12;;;;;;;12.23;6.70;;;;;;;10.64;60.58;98945.59;127125;1105;22399;-76
2021/05/05 04:13:44;;;;;;;15.65;9.03;;;;;;;10.71;60.13;98948.23;127183;1103;25019;-76
2021/05/05 04:16:30;;;;;;;16.58;9.88;;;;;;;10.75;60.25;98952.91;127704;1103;22384;-76
2021/05/05 04:19:17;;;;;;;13.60;8.20;;;;;;;10.79;60.21;98948.02;127654;1106;22376;-75
2021/05/05 04:22:11;;;;;;;11.60;6.90;;;;;;;10.83;59.79;98949.27;127668;1105;23142;-78
2021/05/05 04:25:01;;;;;;;13.80;8.83;;;;;;;10.89;59.79;98955.55;127581;1104;22363;-79
2021/05/05 04:27:36;;;;;;;10.00;7.28;;;;;;;10.92;59.59;98960.42;127406;1107;22388;-79
2021/05/05 04:30:22;;;;;;;13.20;5.93;;;;;;;10.96;59.74;98954.55;127456;1108;22377;-78
2021/05/05 04:32:52;;;;;;;25.35;20.38;;;;;;;11.01;59.31;98959.20;127120;1108;23275;-80
2021/05/05 04:35:23;;;;;;;62.45;49.08;;;;;;;11.03;59.05;98957.19;126972;1108;22463;-79
2021/05/05 04:37:52;;;;;;;84.40;67.38;;;;;;;11.06;59.11;98954.11;127071;1110;22507;-79
2021/05/05 04:40:25;;;;;;;55.98;41.13;;;;;;;11.11;59.13;98961.44;126987;1110;25031;-80
2021/05/05 04:42:54;;;;;;;17.25;12.13;;;;;;;11.15;58.83;98960.81;126678;1111;22866;-78
2021/05/05 04:45:23;;;;;;;11.55;7.18;;;;;;;11.14;58.88;98964.48;126742;1108;22457;-78
2021/05/05 04:47:52;;;;;;;11.50;6.05;;;;;;;11.12;58.61;98963.86;127090;1104;22514;-78
2021/05/05 04:50:23;;;;;;;11.80;6.45;;;;;;;11.11;58.56;98964.89;127148;1105;24630;-79
2021/05/05 04:52:56;;;;;;;12.75;6.88;;;;;;;11.16;58.60;98959.81;127725;1104;22380;-77
2021/05/05 04:55:26;;;;;;;12.80;6.03;;;;;;;11.18;58.32;98955.12;127600;1106;22365;-78
2021/05/05 04:57:56;;;;;;;11.10;6.03;;;;;;;11.24;58.37;98970.16;127662;1104;22352;-79
2021/05/05 05:00:26;;;;;;;11.60;5.28;;;;;;;11.28;58.01;98974.01;127667;1105;22474;-79
2021/05/05 05:02:55;;;;;;;9.33;4.25;;;;;;;11.34;58.09;98976.86;127808;1101;22347;-79
2021/05/05 05:05:25;;;;;;;11.58;3.73;;;;;;;11.45;58.04;98970.93;128010;1104;22367;-79
2021/05/05 05:08:01;;;;;;;6.75;3.40;;;;;;;11.52;57.45;98975.17;127998;1098;22364;-79
2021/05/05 05:10:32;;;;;;;4.60;2.85;;;;;;;11.59;57.04;98977.80;128066;1101;22367;-79
2021/05/05 05:13:11;;;;;;;6.13;3.38;;;;;;;11.66;56.61;98978.63;128057;1098;24479;-79
2021/05/05 05:15:40;;;;;;;8.10;3.50;;;;;;;11.72;56.12;98975.12;128268;1101;22352;-77
2021/05/05 05:18:09;;;;;;;10.17;4.53;;;;;;;11.82;56.02;98972.03;128242;1101;22337;-77
2021/05/05 05:20:41;;;;;;;7.18;3.70;;;;;;;11.89;55.47;98972.84;128262;1101;22367;-77
2021/05/05 05:23:10;;;;;;;12.80;4.18;;;;;;;11.97;55.24;98971.82;128078;1101;22352;-77
2021/05/05 05:25:38;;;;;;;12.20;4.08;;;;;;;11.99;54.77;98970.56;128013;1104;22370;-77
2021/05/05 05:28:07;;;;;;;9.38;4.53;;;;;;;12.05;54.78;98966.27;128034;1101;24485;-77
2021/05/05 05:30:36;;;;;;;8.53;4.95;;;;;;;12.29;55.04;98963.91;128007;1101;22356;-76
2021/05/05 05:33:06;;;;;;;10.68;4.55;;;;;;;12.72;55.05;98958.73;128009;1101;22353;-79
2021/05/05 05:35:38;;;;;;;8.07;5.17;;;;;;;13.28;54.70;98959.71;128039;1104;22459;-78
2021/05/05 05:38:11;;;;;;;8.95;4.25;;;;;;;13.89;53.46;98974.74;127669;1105;22429;-79
2021/05/05 05:40:41;;;;;;;9.68;4.78;;;;;;;14.26;51.47;98972.03;127639;1104;22364;-76
2021/05/05 05:43:10;;;;;;;12.80;5.53;;;;;;;14.42;50.22;98967.93;127984;1105;22364;-75
2021/05/05 05:45:39;;;;;;;10.08;3.48;;;;;;;14.58;50.28;98976.09;127607;1104;22447;-74
2021/05/05 05:48:11;;;;;;;9.75;3.70;;;;;;;14.82;49.47;98976.95;127680;1105;22358;-75
2021/05/05 05:50:39;;;;;;;11.95;7.88;;;;;;;15.17;49.12;98986.02;127644;1104;22356;-75
2021/05/05 05:53:08;;;;;;;10.78;4.03;;;;;;;15.54;48.67;98983.92;127666;1102;24990;-76
2021/05/05 05:55:41;;;;;;;7.63;3.40;;;;;;;15.82;47.08;98979.73;127550;1105;22446;-77
2021/05/05 05:58:13;;;;;;;6.55;2.65;;;;;;;16.09;47.27;98969.34;127966;1103;23310;-76
2021/05/05 06:00:41;;;;;;;6.40;3.33;;;;;;;16.34;46.11;98982.34;127606;1104;22398;-76
2021/05/05 06:03:10;;;;;;;7.03;3.25;;;;;;;16.44;45.54;98986.00;127961;1101;23215;-75
2021/05/05 06:05:39;;;;;;;5.23;3.25;;;;;;;16.52;46.06;98983.98;127971;1104;22350;-75
2021/05/05 06:08:08;;;;;;;5.88;2.95;;;;;;;16.71;45.29;98974.73;127945;1104;22423;-74
2021/05/05 06:10:37;;;;;;;9.78;3.68;;;;;;;17.11;45.41;98985.27;127951;1104;22363;-74
2021/05/05 06:13:06;;;;;;;10.35;3.30;;;;;;;17.57;44.09;98975.25;127978;1101;22859;-78
2021/05/05 06:15:35;;;;;;;9.87;3.20;;;;;;;17.84;43.11;98979.89;128273;1098;24175;-77
2021/05/05 06:18:06;;;;;;;6.60;3.43;;;;;;;18.06;42.72;98975.36;128261;1098;22324;-74
2021/05/05 06:20:35;;;;;;;7.08;3.20;;;;;;;18.31;42.31;98976.68;128419;1101;22336;-75
2021/05/05 06:23:04;;;;;;;6.77;3.40;;;;;;;18.46;41.26;98965.31;128265;1101;22341;-75
2021/05/05 06:25:32;;;;;;;9.65;4.38;;;;;;;18.62;41.04;98967.08;128248;1101;22340;-74
2021/05/05 06:28:04;;;;;;;;;;;;;;;18.52;40.05;98958.96;128233;1101;22358;-75
2021/05/05 06:30:32;;;;;;;7.93;4.05;;;;;;;18.35;40.81;98951.05;128196;1101;21284;-75
2021/05/05 06:33:06;;;;;;;5.33;3.55;;;;;;;18.13;40.66;98951.11;128241;1101;22467;-75
2021/05/05 06:35:35;;;;;;;;;;;;;;;17.83;39.79;98941.70;128362;1101;22346;-75
2021/05/05 06:38:04;;;;;;;5.73;2.90;;;;;;;17.61;41.53;98944.33;128290;1101;21279;-75
2021/05/05 06:40:34;;;;;;;6.93;2.45;;;;;;;17.43;41.77;98954.48;128309;1101;22354;-74
2021/05/05 06:43:03;;;;;;;5.63;2.60;;;;;;;17.38;42.28;98949.89;128017;1101;22382;-76
2021/05/05 06:45:32;;;;;;;7.00;2.75;;;;;;;17.47;41.80;98948.42;127956;1101;24472;-76
2021/05/05 06:48:00;;;;;;;8.50;2.65;;;;;;;17.64;41.99;98951.04;128026;1101;22836;-75
2021/05/05 06:50:29;;;;;;;5.65;2.60;;;;;;;17.90;41.84;98960.20;127942;1101;22465;-75
2021/05/05 06:52:58;;;;;;;7.93;3.53;;;;;;;18.17;41.02;98968.25;127975;1104;22339;-75
2021/05/05 06:55:29;;;;;;;4.78;2.58;;;;;;;18.22;40.31;98983.52;128013;1104;22358;-75
2021/05/05 06:57:58;;;;;;;5.65;2.75;;;;;;;17.99;40.00;98972.05;127703;1105;22371;-77
2021/05/05 07:00:27;;;;;;;5.43;2.73;;;;;;;17.71;40.34;98975.70;127522;1108;23308;-75
2021/05/05 07:02:56;;;;;;;6.83;3.00;;;;;;;17.39;40.09;98986.20;127019;1105;24529;-75
2021/05/05 07:05:25;;;;;;;7.30;3.30;;;;;;;17.16;40.80;98987.23;126896;1111;22419;-74
2021/05/05 07:07:56;;;;;;;10.00;3.25;;;;;;;17.03;41.11;98987.55;127029;1108;22381;-75
2021/05/05 07:10:25;;;;;;;5.63;3.48;;;;;;;16.93;41.38;98983.67;126963;1111;22422;-75
2021/05/05 07:12:55;;;;;;;8.83;3.85;;;;;;;16.80;41.42;98973.32;126950;1111;22424;-75
2021/05/05 07:15:24;;;;;;;10.55;2.90;;;;;;;16.65;41.53;98979.16;127453;1105;25227;-75
2021/05/05 07:17:53;;;;;;;4.83;2.38;;;;;;;16.45;41.41;98974.28;127580;1105;22514;-77
2021/05/05 07:20:22;;;;;;;3.58;2.65;;;;;;;16.28;41.64;98984.09;127484;1105;22390;-77
2021/05/05 07:22:51;;;;;;;5.48;2.98;;;;;;;16.15;42.27;98974.53;127555;1105;22438;-75
2021/05/05 07:25:23;;;;;;;5.18;2.83;;;;;;;16.23;42.34;98979.50;127969;1101;22372;-74
2021/05/05 07:27:52;;;;;;;8.35;3.05;;;;;;;16.21;42.29;98989.57;127659;1101;22362;-76
2021/05/05 07:30:21;;;;;;;7.90;2.90;;;;;;;16.36;42.59;98982.90;128222;1098;24176;-75
2021/05/05 07:32:50;;;;;;;4.85;2.40;;;;;;;16.62;42.32;98976.16;128273;1098;22352;-75
2021/05/05 07:35:20;;;;;;;4.28;1.78;;;;;;;16.66;41.65;98978.13;128063;1101;22352;-77
2021/05/05 07:48:23;;;;;;;3.38;1.73;;;;;;;17.69;41.08;98961.77;128287;1101;22351;-77
2021/05/05 07:50:54;;;;;;;5.78;1.90;;;;;;;18.00;39.45;98952.30;128259;1101;22371;-78
2021/05/05 07:53:22;;;;;;;5.23;2.00;;;;;;;18.12;38.96;98949.48;128391;1101;22336;-78
2021/05/05 07:55:51;;;;;;;7.40;2.30;;;;;;;18.23;39.28;98948.55;128347;1101;23192;-78
2021/05/05 07:58:21;;;;;;;3.85;2.23;;;;;;;18.46;39.25;98947.44;128109;1102;23119;-77
2021/05/05 08:00:49;;;;;;;5.15;1.90;;;;;;;18.67;38.68;98951.08;128260;1098;22346;-78
2021/05/05 08:03:18;;;;;;;4.90;2.35;;;;;;;18.97;38.42;98947.87;128253;1098;24563;-78
2021/05/05 08:05:48;;;;;;;4.60;1.85;;;;;;;19.32;38.02;98945.67;128223;1101;22337;-76
2021/05/05 08:08:17;;;;;;;6.53;2.38;;;;;;;19.67;37.29;98935.17;128264;1101;22353;-78
2021/05/05 08:10:46;;;;;;;6.60;3.23;;;;;;;20.01;36.35;98937.43;128242;1101;22365;-77
2021/05/05 08:13:16;;;;;;;4.10;2.10;;;;;;;20.31;35.80;98939.38;128077;1102;22351;-78
2021/05/05 08:15:46;;;;;;;7.23;2.73;;;;;;;20.34;34.29;98938.04;128264;1101;22317;-80
2021/05/05 08:18:15;;;;;;;7.53;3.40;;;;;;;20.31;34.26;98942.05;128320;1101;22729;-78
2021/05/05 08:20:51;;;;;;;5.63;2.40;;;;;;;20.27;34.15;98940.18;128222;1101;22337;-77
2021/05/05 08:23:20;;;;;;;3.85;1.63;;;;;;;19.94;33.52;98936.88;128438;1101;22336;-77
2021/05/05 08:25:49;;;;;;;4.03;2.20;;;;;;;19.67;33.62;98939.73;128263;1098;24237;-77
2021/05/05 08:28:20;;;;;;;5.83;2.13;;;;;;;19.38;33.79;98934.73;128093;1098;23105;-76
2021/05/05 08:30:51;;;;;;;4.70;2.20;;;;;;;19.31;34.39;98938.71;128099;1101;23239;-78
2021/05/05 08:33:21;;;;;;;4.50;2.00;;;;;;;19.54;34.45;98930.27;128272;1101;22384;-77
2021/05/05 08:35:50;;;;;;;5.78;2.00;;;;;;;19.55;33.46;98929.19;128078;1101;22187;-77
2021/05/05 08:38:20;;;;;;;6.63;2.13;;;;;;;19.45;33.66;98926.46;128283;1101;22347;-77
2021/05/05 08:40:50;;;;;;;8.65;2.20;;;;;;;19.36;33.59;98931.52;128078;1101;22363;-78
2021/05/05 08:43:19;;;;;;;8.80;2.25;;;;;;;18.89;32.39;98932.27;128090;1101;22440;-78
2021/05/05 08:45:56;;;;;;;4.75;1.70;;;;;;;18.35;32.67;98926.98;128297;1101;22349;-77
2021/05/05 08:48:25;;;;;;;8.65;2.00;;;;;;;18.07;32.90;98918.17;128097;1101;22354;-78
2021/05/05 08:50:54;;;;;;;4.10;1.95;;;;;;;18.01;33.25;98913.03;128312;1098;22375;-77
2021/05/05 08:53:25;;;;;;;4.60;2.35;;;;;;;18.02;32.94;98906.62;128310;1101;22412;-82
2021/05/05 08:55:55;;;;;;;6.20;2.43;;;;;;;18.09;33.02;98912.56;128254;1098;24617;-79
2021/05/05 08:58:24;;;;;;;3.03;2.13;;;;;;;18.07;33.22;98912.83;128334;1102;22374;-78
2021/05/05 09:00:53;;;;;;;4.28;2.23;;;;;;;18.06;33.11;98916.56;128252;1104;23211;-77
2021/05/05 09:03:43;;;;;;;7.40;2.13;;;;;;;17.95;32.66;98914.03;128001;1104;22643;-77
2021/05/05 09:06:15;;;;;;;7.03;2.60;;;;;;;17.93;33.23;98924.17;128014;1100;24450;-78
2021/05/05 09:08:48;;;;;;;4.10;1.95;;;;;;;17.85;32.97;98928.08;128032;1104;22355;-80
2021/05/05 09:11:20;;;;;;;8.40;2.40;;;;;;;17.88;33.26;98931.05;128253;1101;24554;-78
2021/05/05 09:13:58;;;;;;;5.85;2.53;;;;;;;17.92;33.27;98935.90;128027;1104;22333;-77
2021/05/05 09:16:32;;;;;;;4.13;1.80;;;;;;;17.97;33.45;98939.44;128026;1104;22391;-78
2021/05/05 09:19:11;;;;;;;2.85;1.45;;;;;;;17.91;33.02;98939.64;127855;1104;23132;-78
2021/05/05 09:21:49;;;;;;;4.40;1.75;;;;;;;17.75;33.04;98944.75;127679;1105;22340;-78
2021/05/05 09:24:30;;;;;;;4.28;2.03;;;;;;;17.56;33.36;98938.10;127672;1105;22459;-78
2021/05/05 09:27:03;;;;;;;5.78;2.83;;;;;;;17.36;33.12;98947.48;127751;1105;22502;-78
2021/05/05 09:29:41;;;;;;;3.73;2.05;;;;;;;17.19;33.25;98949.35;128061;1103;24507;-79
2021/05/05 09:32:12;;;;;;;5.35;3.45;;;;;;;17.11;33.41;98952.45;127668;1104;22459;-77
2021/05/05 09:34:43;;;;;;;4.73;1.68;;;;;;;16.99;33.15;98941.85;127775;1104;22357;-78
2021/05/05 09:37:12;;;;;;;4.33;2.33;;;;;;;16.83;33.60;98940.03;128129;1101;22368;-78
2021/05/05 09:39:42;;;;;;;4.43;1.90;;;;;;;16.65;33.46;98947.16;128037;1104;22362;-77
2021/05/05 09:42:38;;;;;;;4.25;2.33;;;;;;;16.49;33.95;98950.62;127998;1104;22358;-79
2021/05/05 09:45:12;;;;;;;5.73;3.00;;;;;;;16.32;34.02;98945.27;127611;1107;22402;-78
2021/05/05 09:48:00;;;;;;;5.10;2.73;;;;;;;16.18;33.77;98952.74;127080;1108;22393;-78
2021/05/05 09:50:42;;;;;;;9.15;4.33;;;;;;;16.19;34.08;98943.72;127142;1106;25769;-78
2021/05/05 09:53:32;;;;;;;8.70;3.03;;;;;;;16.34;33.86;98951.17;127122;1106;22422;-79
2021/05/05 09:56:03;;;;;;;4.95;2.28;;;;;;;16.43;33.80;98938.28;127124;1107;22404;-79
2021/05/05 09:58:46;;;;;;;6.35;2.43;;;;;;;16.38;32.72;98940.84;127423;1107;22415;-78
2021/05/05 10:01:22;;;;;;;4.50;2.40;;;;;;;16.27;32.71;98944.38;127578;1107;22416;-80
2021/05/05 10:03:55;;;;;;;3.93;2.08;;;;;;;16.23;32.96;98944.05;127563;1108;22526;-78
2021/05/05 10:06:31;;;;;;;7.35;3.60;;;;;;;16.16;32.79;98928.21;127819;1104;23227;-79
2021/05/05 10:09:12;;;;;;;7.43;2.40;;;;;;;16.08;32.93;98933.10;128055;1104;22388;-77
2021/05/05 10:11:45;;;;;;;7.08;2.30;;;;;;;16.07;33.35;98937.63;128075;1101;25109;-79
2021/05/05 10:14:17;;;;;;;9.95;2.50;;;;;;;16.06;33.77;98935.19;128051;1102;24482;-78
2021/05/05 10:16:52;;;;;;;4.58;1.80;;;;;;;16.11;34.06;98933.43;128083;1104;22376;-79
2021/05/05 10:19:34;;;;;;;6.48;2.90;;;;;;;16.10;33.95;98934.48;127627;1108;22529;-77
2021/05/05 10:22:06;;;;;;;5.03;2.25;;;;;;;16.14;34.09;98935.63;127192;1108;22366;-77
2021/05/05 10:24:38;;;;;;;;;;;;;;;16.19;33.79;98935.73;127603;1107;22360;-75
2021/05/05 10:27:14;;;;;;;4.15;1.68;;;;;;;16.25;34.13;98931.28;127139;1108;21287;-79
2021/05/05 10:29:46;;;;;;;11.58;2.63;;;;;;;16.29;33.81;98939.60;127055;1106;24557;-78
2021/05/05 10:32:15;;;;;;;7.25;3.03;;;;;;;16.23;33.34;98942.19;127319;1108;22408;-77
2021/05/05 10:34:53;;;;;;;7.65;3.15;;;;;;;16.20;33.93;98940.00;127125;1106;22487;-76
2021/05/05 10:37:44;;;;;;;6.08;3.63;;;;;;;16.17;34.08;98935.15;127251;1108;22390;-78
2021/05/05 10:40:18;;;;;;;10.70;3.85;;;;;;;16.18;34.06;98955.41;127567;1107;22392;-77
2021/05/05 10:42:57;;;;;;;4.37;2.43;;;;;;;16.15;34.11;98941.75;127599;1108;22536;-78
2021/05/05 10:45:49;;;;;;;7.08;3.53;;;;;;;16.05;34.53;98944.23;127262;1103;22402;-78
2021/05/05 10:48:18;;;;;;;;;;;;;;;15.94;34.70;98952.03;127624;1107;22843;-76
2021/05/05 10:50:56;;;;;;;6.48;2.30;;;;;;;15.87;35.26;98951.36;127006;1107;21280;-78
2021/05/05 10:54:00;;;;;;;7.48;2.55;;;;;;;15.82;35.50;98945.92;126974;1110;22410;-78
2021/05/05 10:56:30;;;;;;;5.63;2.90;;;;;;;15.71;36.08;98949.44;126994;1111;22402;-77
2021/05/05 10:59:08;;;;;;;5.70;3.33;;;;;;;15.59;37.29;98943.28;126661;1111;24569;-77
2021/05/05 11:01:50;;;;;;;6.88;2.85;;;;;;;15.35;38.44;98942.52;126941;1114;22461;-78
2021/05/05 11:04:19;;;;;;;6.40;4.30;;;;;;;15.11;39.73;98947.84;126603;1111;22497;-78
2021/05/05 11:06:51;;;;;;;6.68;3.05;;;;;;;15.05;40.48;98941.59;126647;1111;25051;-78
2021/05/05 11:09:41;;;;;;;7.23;3.18;;;;;;;14.99;40.56;98949.69;127072;1108;24524;-78
2021/05/05 11:12:38;;;;;;;6.95;2.80;;;;;;;14.77;41.09;98952.11;126675;1114;22427;-77
2021/05/05 11:15:08;;;;;;;5.05;1.93;;;;;;;14.58;41.46;98952.18;126671;1114;22519;-78
2021/05/05 11:17:37;;;;;;;5.75;2.48;;;;;;;14.52;41.44;98953.08;126729;1111;22580;-77
2021/05/05 11:20:07;;;;;;;3.73;1.63;;;;;;;14.47;41.43;98955.59;126654;1110;25067;-78
2021/05/05 11:22:44;;;;;;;4.90;2.03;;;;;;;14.54;42.03;98958.99;126693;1114;22408;-77
2021/05/05 11:25:24;;;;;;;4.20;2.38;;;;;;;14.65;41.80;98953.93;126739;1111;22459;-77
2021/05/05 11:27:55;;;;;;;5.00;2.70;;;;;;;14.72;41.95;98941.34;127034;1110;24221;-77
2021/05/05 11:30:48;;;;;;;4.03;2.53;;;;;;;14.80;41.81;98949.80;127005;1107;24276;-77
2021/05/05 11:33:17;;;;;;;7.45;2.28;;;;;;;14.84;41.63;98958.13;127467;1105;22368;-78
2021/05/05 11:35:47;;;;;;;5.30;2.33;;;;;;;14.77;42.08;98960.09;127606;1107;22360;-78
2021/05/05 11:38:23;;;;;;;4.88;2.80;;;;;;;14.72;41.95;98950.12;127738;1101;24253;-78
2021/05/05 11:41:01;;;;;;;6.53;2.73;;;;;;;14.74;42.09;98952.56;127554;1105;22456;-77
2021/05/05 11:43:31;;;;;;;4.03;2.68;;;;;;;14.71;42.39;98953.83;127530;1104;24918;-78
2021/05/05 11:46:07;;;;;;;8.68;3.80;;;;;;;14.72;42.40;98955.44;127622;1105;22454;-77
2021/05/05 11:48:40;;;;;;;7.33;5.00;;;;;;;14.77;42.62;98958.23;127532;1107;22394;-78
2021/05/05 11:51:26;;;;;;;5.98;4.05;;;;;;;14.76;42.44;98950.47;128026;1105;22842;-78
2021/05/05 11:53:56;;;;;;;10.90;5.83;;;;;;;14.73;42.87;98945.64;128069;1101;23134;-77
2021/05/05 11:56:26;;;;;;;9.50;4.75;;;;;;;14.64;42.98;98937.17;127613;1104;22403;-76
2021/05/05 11:59:01;;;;;;;10.37;5.23;;;;;;;14.52;43.14;98942.45;128020;1101;23540;-77
2021/05/05 12:01:37;;;;;;;48.13;38.60;;;;;;;14.46;43.62;98934.55;128191;1101;22355;-76